createdAt,value
2023-04-20T00:00:25.487Z,0
2023-04-20T00:01:26.669Z,0
2023-04-20T00:03:23.829Z,0
2023-04-20T00:04:23.444Z,0
2023-04-20T00:05:23.931Z,0
2023-04-20T00:06:24.084Z,0.109
2023-04-20T00:07:23.984Z,0
2023-04-20T00:08:24.099Z,0
2023-04-20T00:09:23.866Z,0
2023-04-20T00:10:24.006Z,0
2023-04-20T00:11:23.956Z,0
2023-04-20T00:12:23.947Z,0
2023-04-20T00:13:24.151Z,0
2023-04-20T00:14:23.814Z,0
2023-04-20T00:15:24.286Z,0
2023-04-20T00:16:37.691Z,0
2023-04-20T00:17:23.711Z,0.109
2023-04-20T00:18:23.837Z,0
2023-04-20T00:19:23.630Z,0
2023-04-20T00:20:23.777Z,0
2023-04-20T00:21:23.957Z,0.109
2023-04-20T00:22:24.150Z,0
2023-04-20T00:23:24.304Z,0
2023-04-20T00:24:23.769Z,0
2023-04-20T00:25:24.093Z,0
2023-04-20T00:26:23.893Z,0
2023-04-20T00:27:23.892Z,0
2023-04-20T00:28:23.965Z,0
2023-04-20T00:29:23.710Z,0
2023-04-20T00:30:24.490Z,0
2023-04-20T00:31:23.934Z,0
2023-04-20T00:32:24.021Z,0
2023-04-20T00:33:24.270Z,0
2023-04-20T00:34:23.596Z,0
2023-04-20T00:35:23.991Z,0
2023-04-20T00:36:23.545Z,0.109
2023-04-20T00:37:23.803Z,0
2023-04-20T00:38:24.086Z,0
2023-04-20T00:39:23.599Z,0
2023-04-20T00:40:24.047Z,0
2023-04-20T00:41:24.187Z,0
2023-04-20T00:42:23.952Z,0
2023-04-20T00:43:24.322Z,0
2023-04-20T00:44:23.626Z,0
2023-04-20T00:45:24.357Z,0
2023-04-20T00:46:23.847Z,0
2023-04-20T00:47:24.266Z,0
2023-04-20T00:48:23.649Z,0
2023-04-20T00:49:23.805Z,0
2023-04-20T00:50:24.090Z,0
2023-04-20T00:51:23.952Z,0
2023-04-20T00:52:24.161Z,0
2023-04-20T00:53:23.789Z,0
2023-04-20T00:54:23.773Z,0.109
2023-04-20T00:55:24.180Z,0
2023-04-20T00:56:23.674Z,0
2023-04-20T00:57:23.715Z,0.109
2023-04-20T00:58:24.333Z,0
2023-04-20T00:59:23.446Z,0
2023-04-20T01:00:24.749Z,0.109
2023-04-20T01:01:24.025Z,0
2023-04-20T01:02:23.826Z,0.109
2023-04-20T01:03:23.856Z,0
2023-04-20T01:04:23.890Z,0
2023-04-20T01:05:24.315Z,0
2023-04-20T01:06:23.947Z,0
2023-04-20T01:07:23.821Z,0
2023-04-20T01:08:23.968Z,0
2023-04-20T01:09:24.090Z,0
2023-04-20T01:10:24.326Z,0
2023-04-20T01:11:23.679Z,0
2023-04-20T01:12:23.760Z,0
2023-04-20T01:13:23.747Z,0
2023-04-20T01:14:24.033Z,0
2023-04-20T01:15:23.780Z,0
2023-04-20T01:16:23.662Z,0
2023-04-20T01:17:23.786Z,0
2023-04-20T01:18:23.944Z,0
2023-04-20T01:19:23.979Z,0
2023-04-20T01:20:23.909Z,0
2023-04-20T01:21:23.717Z,0
2023-04-20T01:22:23.873Z,0
2023-04-20T01:23:24.352Z,0.109
2023-04-20T01:24:23.815Z,0
2023-04-20T01:25:24.120Z,0.109
2023-04-20T01:26:23.796Z,0
2023-04-20T01:27:23.884Z,0
2023-04-20T01:28:23.699Z,0.109
2023-04-20T01:29:23.666Z,0
2023-04-20T01:30:23.967Z,0.109
2023-04-20T01:31:23.649Z,0.109
2023-04-20T01:32:23.711Z,0
2023-04-20T01:33:23.777Z,0
2023-04-20T01:34:24.025Z,0
2023-04-20T01:35:24.202Z,0.109
2023-04-20T01:36:23.633Z,0
2023-04-20T01:37:23.386Z,0
2023-04-20T01:38:24.683Z,0
2023-04-20T01:39:24.160Z,0.109
2023-04-20T01:40:23.813Z,0
2023-04-20T01:41:23.772Z,0.219
2023-04-20T01:42:24.065Z,0.219
2023-04-20T01:43:23.729Z,0
2023-04-20T01:44:23.711Z,0
2023-04-20T01:45:23.918Z,0.109
2023-04-20T01:46:23.702Z,0.109
2023-04-20T01:47:23.798Z,0
2023-04-20T01:48:24.209Z,0.219
2023-04-20T01:49:23.630Z,0
2023-04-20T01:50:24.024Z,0.109
2023-04-20T01:51:23.812Z,0.109
2023-04-20T01:52:23.880Z,0
2023-04-20T01:53:23.796Z,0
2023-04-20T01:54:24.072Z,0
2023-04-20T01:55:24.030Z,0.109
2023-04-20T01:56:23.776Z,0.109
2023-04-20T01:57:23.783Z,0
2023-04-20T01:58:24.293Z,0
2023-04-20T01:59:23.474Z,0
2023-04-20T02:00:24.600Z,0
2023-04-20T02:01:23.906Z,0
2023-04-20T02:02:23.875Z,0
2023-04-20T02:03:24.049Z,0.100
2023-04-20T02:04:23.659Z,0
2023-04-20T02:05:23.709Z,0
2023-04-20T02:06:23.787Z,0
2023-04-20T02:07:24.307Z,0
2023-04-20T02:08:23.970Z,0.119
2023-04-20T02:09:24.073Z,0.340
2023-04-20T02:10:23.728Z,0
2023-04-20T02:11:23.619Z,0.409
2023-04-20T02:12:24.108Z,0.119
2023-04-20T02:13:23.536Z,0.109
2023-04-20T02:14:23.995Z,0.109
2023-04-20T02:15:23.921Z,0.219
2023-04-20T02:16:24.182Z,0.219
2023-04-20T02:17:23.945Z,0.219
2023-04-20T02:18:23.999Z,0.219
2023-04-20T02:19:23.839Z,0.449
2023-04-20T02:20:24.120Z,0.109
2023-04-20T02:21:23.635Z,0.340
2023-04-20T02:22:23.777Z,0.340
2023-04-20T02:23:23.868Z,0.219
2023-04-20T02:24:23.451Z,0.340
2023-04-20T02:25:23.734Z,0.219
2023-04-20T02:26:23.664Z,0.340
2023-04-20T02:27:23.631Z,0.219
2023-04-20T02:28:23.577Z,0
2023-04-20T02:29:32.045Z,0
2023-04-20T02:30:23.991Z,0
2023-04-20T02:31:31.659Z,0
2023-04-20T02:32:23.923Z,0.109
2023-04-20T02:33:23.867Z,0
2023-04-20T02:34:23.736Z,0
2023-04-20T02:35:23.948Z,0.109
2023-04-20T02:36:23.632Z,0
2023-04-20T02:37:23.657Z,0
2023-04-20T02:38:23.732Z,0
2023-04-20T02:39:23.662Z,0
2023-04-20T02:40:24.141Z,0
2023-04-20T02:41:23.391Z,0
2023-04-20T02:42:24.043Z,0
2023-04-20T02:43:23.844Z,0
2023-04-20T02:44:23.866Z,0
2023-04-20T02:45:24.379Z,0
2023-04-20T02:46:23.659Z,0
2023-04-20T02:47:23.564Z,0
2023-04-20T02:48:24.242Z,0
2023-04-20T02:49:23.693Z,0.109
2023-04-20T02:50:23.837Z,0
2023-04-20T02:51:23.917Z,0
2023-04-20T02:52:24.049Z,0
2023-04-20T02:53:23.989Z,0
2023-04-20T02:54:24.095Z,0
2023-04-20T02:55:24.445Z,0.109
2023-04-20T02:56:23.499Z,0
2023-04-20T02:57:23.626Z,0
2023-04-20T02:58:23.944Z,0
2023-04-20T02:59:24.163Z,0
2023-04-20T03:00:24.763Z,0
2023-04-20T03:01:24.417Z,0
2023-04-20T03:02:24.179Z,0
2023-04-20T03:03:23.974Z,0
2023-04-20T03:04:23.807Z,0
2023-04-20T03:05:23.938Z,0
2023-04-20T03:06:24.473Z,0
2023-04-20T03:07:23.950Z,0
2023-04-20T03:08:24.360Z,0
2023-04-20T03:09:23.761Z,0
2023-04-20T03:10:24.243Z,0
2023-04-20T03:11:23.791Z,0
2023-04-20T03:12:23.960Z,0
2023-04-20T03:13:23.977Z,0
2023-04-20T03:14:23.808Z,0
2023-04-20T03:15:23.805Z,0
2023-04-20T03:16:23.947Z,0
2023-04-20T03:17:23.966Z,0
2023-04-20T03:18:24.159Z,0
2023-04-20T03:19:24.115Z,0
2023-04-20T03:20:24.023Z,0
2023-04-20T03:21:23.808Z,0
2023-04-20T03:22:24.112Z,0
2023-04-20T03:24:27.476Z,0
2023-04-20T03:25:24.454Z,0
2023-04-20T03:26:23.999Z,0
2023-04-20T03:27:24.384Z,0
2023-04-20T03:28:23.915Z,0
2023-04-20T03:29:24.034Z,0
2023-04-20T03:30:24.812Z,0
2023-04-20T03:31:24.164Z,0
2023-04-20T03:32:23.945Z,0
2023-04-20T03:33:24.002Z,0
2023-04-20T03:34:23.832Z,0
2023-04-20T03:35:24.324Z,0
2023-04-20T03:36:23.921Z,0
2023-04-20T03:37:23.703Z,0.109
2023-04-20T03:38:24.304Z,0
2023-04-20T03:39:23.752Z,0
2023-04-20T03:40:24.412Z,0
2023-04-20T03:41:24.034Z,0
2023-04-20T03:42:23.777Z,0
2023-04-20T03:43:24.070Z,0
2023-04-20T03:44:24.015Z,0.109
2023-04-20T03:45:24.371Z,0
2023-04-20T03:46:24.042Z,0
2023-04-20T03:47:24.069Z,0.109
2023-04-20T03:48:23.660Z,0
2023-04-20T03:49:24.127Z,0
2023-04-20T03:50:23.991Z,0
2023-04-20T03:51:23.796Z,0
2023-04-20T03:52:23.922Z,0
2023-04-20T03:53:24.089Z,0
2023-04-20T03:54:23.986Z,13600
2023-04-20T03:55:23.877Z,13600
2023-04-20T03:56:24.088Z,13600
2023-04-20T03:57:23.675Z,13600
2023-04-20T03:58:23.919Z,0
2023-04-20T03:59:23.903Z,13600
2023-04-20T04:00:25.539Z,13600
2023-04-20T04:01:23.870Z,13600
2023-04-20T04:02:24.124Z,13600
2023-04-20T04:03:24.041Z,13600
2023-04-20T04:04:24.473Z,13600
2023-04-20T04:05:24.947Z,0
2023-04-20T04:06:23.959Z,0
2023-04-20T04:07:24.150Z,0
2023-04-20T04:08:23.798Z,0.109
2023-04-20T04:09:24.126Z,0.680
2023-04-20T04:10:23.871Z,0.340
2023-04-20T04:11:23.674Z,0
2023-04-20T04:12:24.629Z,0.330
2023-04-20T04:13:23.988Z,0.449
2023-04-20T04:14:24.538Z,0.600
2023-04-20T04:15:24.491Z,1.179
2023-04-20T04:16:24.317Z,0.649
2023-04-20T04:17:23.882Z,1.090
2023-04-20T04:18:24.043Z,1.090
2023-04-20T04:19:23.889Z,1.090
2023-04-20T04:20:23.679Z,1.320
2023-04-20T04:21:23.926Z,2.119
2023-04-20T04:22:23.619Z,2.180
2023-04-20T04:23:23.750Z,3.269
2023-04-20T04:24:23.870Z,4.300
2023-04-20T04:25:24.659Z,5.969
2023-04-20T04:26:24.025Z,7.469
2023-04-20T04:27:23.932Z,8.869
2023-04-20T04:28:24.443Z,10.11
2023-04-20T04:29:24.127Z,10.72
2023-04-20T04:30:24.027Z,11.80
2023-04-20T04:31:23.659Z,12.51
2023-04-20T04:32:24.595Z,13.52
2023-04-20T04:33:24.010Z,14.59
2023-04-20T04:34:23.870Z,15.73
2023-04-20T04:35:24.129Z,17.13
2023-04-20T04:36:23.962Z,19.22
2023-04-20T04:37:24.000Z,20.12
2023-04-20T04:38:23.647Z,21.65
2023-04-20T04:39:24.253Z,23.15
2023-04-20T04:40:24.143Z,23.87
2023-04-20T04:41:24.075Z,25.70
2023-04-20T04:42:28.985Z,27.89
2023-04-20T04:43:24.214Z,30.60
2023-04-20T04:44:23.908Z,34.09
2023-04-20T04:45:23.712Z,37.20
2023-04-20T04:46:29.252Z,40.04
2023-04-20T04:47:24.018Z,43
2023-04-20T04:48:24.032Z,45.79
2023-04-20T04:49:24.068Z,48.59
2023-04-20T04:50:29.034Z,51.90
2023-04-20T04:51:24.732Z,55.20
2023-04-20T04:52:29.343Z,55.90
2023-04-20T04:53:24.354Z,56.40
2023-04-20T04:54:29.264Z,60
2023-04-20T04:55:24.057Z,60.5
2023-04-20T04:56:23.610Z,58.79
2023-04-20T04:57:23.943Z,56.5
2023-04-20T04:58:24.453Z,53.09
2023-04-20T04:59:23.685Z,51.18
2023-04-20T05:00:25.304Z,50.36
2023-04-20T05:01:24.537Z,49.11
2023-04-20T05:02:38.669Z,49.81
2023-04-20T05:03:24.033Z,49.66
2023-04-20T05:04:24.318Z,49.86
2023-04-20T05:05:24.329Z,51.40
2023-04-20T05:06:24.122Z,53.90
2023-04-20T05:07:23.953Z,57.5
2023-04-20T05:08:24.742Z,63
2023-04-20T05:09:24.225Z,71.69
2023-04-20T05:10:24.164Z,81
2023-04-20T05:11:23.950Z,95
2023-04-20T05:12:24.048Z,112
2023-04-20T05:13:24.179Z,130
2023-04-20T05:14:23.948Z,145
2023-04-20T05:15:23.944Z,156.3
2023-04-20T05:16:23.916Z,168
2023-04-20T05:17:24.422Z,181
2023-04-20T05:18:24.213Z,191.6
2023-04-20T05:19:23.957Z,202
2023-04-20T05:20:24.495Z,212.6
2023-04-20T05:21:24.552Z,222
2023-04-20T05:22:24.094Z,235
2023-04-20T05:23:24.176Z,252
2023-04-20T05:24:24.197Z,274
2023-04-20T05:25:24.224Z,295
2023-04-20T05:26:24.022Z,317
2023-04-20T05:27:24.086Z,337
2023-04-20T05:28:24.021Z,352
2023-04-20T05:29:24.128Z,363
2023-04-20T05:30:46.579Z,379
2023-04-20T05:31:24.251Z,396
2023-04-20T05:32:24.133Z,413
2023-04-20T05:33:24.143Z,440
2023-04-20T05:34:23.793Z,480
2023-04-20T05:35:24.070Z,540
2023-04-20T05:36:23.812Z,610
2023-04-20T05:37:24.028Z,690
2023-04-20T05:38:23.801Z,750
2023-04-20T05:39:24.141Z,800
2023-04-20T05:41:27.715Z,848.4
2023-04-20T05:42:24.493Z,847.0
2023-04-20T05:43:24.259Z,836
2023-04-20T05:44:24.057Z,800
2023-04-20T05:45:24.060Z,773
2023-04-20T05:46:24.000Z,752.9
2023-04-20T05:47:23.879Z,759
2023-04-20T05:48:24.224Z,790
2023-04-20T05:49:23.885Z,860
2023-04-20T05:50:24.846Z,930
2023-04-20T05:51:24.292Z,990
2023-04-20T05:53:27.691Z,960
2023-04-20T05:54:23.879Z,800
2023-04-20T05:55:24.412Z,700
2023-04-20T05:56:24.065Z,600
2023-04-20T05:57:23.869Z,530
2023-04-20T05:58:24.779Z,502
2023-04-20T05:59:24.019Z,497.2
2023-04-20T06:00:26.278Z,497.3
2023-04-20T06:01:23.928Z,507.2
2023-04-20T06:02:24.488Z,500
2023-04-20T06:03:24.412Z,460
2023-04-20T06:04:24.320Z,444.8
2023-04-20T06:05:24.578Z,444.7
2023-04-20T06:06:24.940Z,438.5
2023-04-20T06:07:23.802Z,438.6
2023-04-20T06:08:23.839Z,460
2023-04-20T06:09:23.858Z,520
2023-04-20T06:10:24.478Z,559
2023-04-20T06:11:23.974Z,551
2023-04-20T06:12:25.709Z,530
2023-04-20T06:13:23.918Z,522.2
2023-04-20T06:14:23.742Z,520.5
2023-04-20T06:15:24.763Z,511
2023-04-20T06:16:23.588Z,470
2023-04-20T06:17:23.862Z,410
2023-04-20T06:18:23.697Z,370
2023-04-20T06:19:24.138Z,351
2023-04-20T06:20:23.842Z,348.9
2023-04-20T06:21:23.875Z,345.3
2023-04-20T06:22:24.073Z,346.3
2023-04-20T06:23:24.292Z,365
2023-04-20T06:24:24.151Z,397
2023-04-20T06:25:24.018Z,423
2023-04-20T06:26:23.859Z,460
2023-04-20T06:27:23.840Z,520
2023-04-20T06:28:24.609Z,600
2023-04-20T06:29:23.857Z,710
2023-04-20T06:30:24.749Z,759
2023-04-20T06:31:24.284Z,790
2023-04-20T06:32:23.887Z,850
2023-04-20T06:33:24.041Z,903
2023-04-20T06:34:23.782Z,907
2023-04-20T06:35:23.969Z,860
2023-04-20T06:36:23.940Z,790
2023-04-20T06:37:24.110Z,730
2023-04-20T06:38:24.052Z,680
2023-04-20T06:39:24.176Z,663
2023-04-20T06:40:24.369Z,643
2023-04-20T06:41:23.836Z,610
2023-04-20T06:42:24.088Z,560
2023-04-20T06:43:23.822Z,525
2023-04-20T06:44:24.081Z,519
2023-04-20T06:45:24.465Z,560
2023-04-20T06:46:24.059Z,630
2023-04-20T06:47:23.954Z,690
2023-04-20T06:48:30.779Z,740
2023-04-20T06:49:24.085Z,790
2023-04-20T06:50:24.249Z,830
2023-04-20T06:51:24.163Z,880
2023-04-20T06:52:24.296Z,970
2023-04-20T06:53:24.182Z,1000
2023-04-20T06:54:24.199Z,1142
2023-04-20T06:55:24.316Z,1120
2023-04-20T06:56:24.195Z,1060
2023-04-20T06:57:24.241Z,1016
2023-04-20T06:58:24.044Z,1040
2023-04-20T06:59:24.536Z,1072
2023-04-20T07:00:25.502Z,1020
2023-04-20T07:01:24.540Z,960
2023-04-20T07:02:24.401Z,956
2023-04-20T07:03:24.493Z,980
2023-04-20T07:04:23.679Z,1030
2023-04-20T07:05:24.886Z,1030
2023-04-20T07:06:24.247Z,970
2023-04-20T07:07:24.502Z,920
2023-04-20T07:08:24.568Z,850
2023-04-20T07:09:24.210Z,760
2023-04-20T07:10:24.588Z,680
2023-04-20T07:11:29.474Z,685
2023-04-20T07:12:24.130Z,708
2023-04-20T07:13:24.307Z,722.9
2023-04-20T07:14:23.964Z,713
2023-04-20T07:15:24.160Z,714.0
2023-04-20T07:16:24.212Z,730
2023-04-20T07:17:24.222Z,800
2023-04-20T07:18:24.021Z,905
2023-04-20T07:19:31.673Z,890
2023-04-20T07:20:24.503Z,830
2023-04-20T07:21:24.550Z,812
2023-04-20T07:22:24.363Z,800
2023-04-20T07:23:23.920Z,760
2023-04-20T07:24:24.639Z,750.4
2023-04-20T07:25:24.471Z,720
2023-04-20T07:26:23.937Z,600
2023-04-20T07:27:23.637Z,550
2023-04-20T07:28:24.116Z,528
2023-04-20T07:29:24.043Z,518.7
2023-04-20T07:30:24.436Z,522.9
2023-04-20T07:31:24.749Z,540
2023-04-20T07:32:24.451Z,569
2023-04-20T07:33:24.143Z,588
2023-04-20T07:34:24.116Z,615
2023-04-20T07:35:23.956Z,640
2023-04-20T07:36:24.157Z,700
2023-04-20T07:37:25.734Z,810
2023-04-20T07:38:23.830Z,870
2023-04-20T07:39:24.549Z,920
2023-04-20T07:40:24.102Z,1000
2023-04-20T07:41:23.677Z,1100
2023-04-20T07:42:23.913Z,1240
2023-04-20T07:43:24.660Z,1300
2023-04-20T07:44:24.229Z,1390
2023-04-20T07:45:24.564Z,1340
2023-04-20T07:46:24.331Z,1260
2023-04-20T07:47:23.995Z,1210
2023-04-20T07:48:24.042Z,1170
2023-04-20T07:49:23.748Z,1230
2023-04-20T07:50:24.741Z,1300
2023-04-20T07:51:24.245Z,1600
2023-04-20T07:52:24.387Z,1730
2023-04-20T07:53:24.377Z,1600
2023-04-20T07:54:24.451Z,1400
2023-04-20T07:55:21.641Z,1400
2023-04-20T07:57:24.488Z,1220
2023-04-20T07:58:24.531Z,1279
2023-04-20T07:59:24.401Z,1200
2023-04-20T08:00:25.338Z,1090
2023-04-20T08:01:24.251Z,1100
2023-04-20T08:02:24.296Z,1240
2023-04-20T08:03:25.072Z,1233
2023-04-20T08:04:24.757Z,1180
2023-04-20T08:05:24.528Z,1100
2023-04-20T08:06:24.367Z,1100
2023-04-20T08:07:24.311Z,1200
2023-04-20T08:08:24.150Z,1350
2023-04-20T08:09:23.790Z,1420
2023-04-20T08:10:24.504Z,1460
2023-04-20T08:11:23.953Z,1499
2023-04-20T08:12:24.082Z,1440
2023-04-20T08:13:24.072Z,1370
2023-04-20T08:14:23.947Z,1310
2023-04-20T08:15:24.446Z,1400
2023-04-20T08:16:24.172Z,1500
2023-04-20T08:17:24.053Z,1616
2023-04-20T08:18:23.577Z,1500
2023-04-20T08:19:23.945Z,1300
2023-04-20T08:20:24.069Z,1200
2023-04-20T08:21:25.494Z,1200
2023-04-20T08:22:23.576Z,1160
2023-04-20T08:23:24.269Z,1110
2023-04-20T08:24:24.013Z,1000
2023-04-20T08:25:25.545Z,945
2023-04-20T08:26:24.249Z,890
2023-04-20T08:27:23.765Z,846
2023-04-20T08:29:23.833Z,850
2023-04-20T08:30:24.690Z,847
2023-04-20T08:31:24.338Z,880
2023-04-20T08:32:24.224Z,900
2023-04-20T08:33:24.096Z,1050
2023-04-20T08:34:24.017Z,980
2023-04-20T08:35:23.960Z,1100
2023-04-20T08:36:24.091Z,1250
2023-04-20T08:37:23.784Z,1230
2023-04-20T08:38:33.440Z,1400
2023-04-20T08:39:24.291Z,1500
2023-04-20T08:40:24.475Z,1300
2023-04-20T08:41:24.222Z,1110
2023-04-20T08:42:23.982Z,1200
2023-04-20T08:43:24.200Z,1500
2023-04-20T08:44:23.994Z,1700
2023-04-20T08:45:24.661Z,2000
2023-04-20T08:46:24.703Z,2300
2023-04-20T08:47:24.583Z,2490
2023-04-20T08:48:24.310Z,2400
2023-04-20T08:49:24.033Z,2200
2023-04-20T08:50:24.084Z,2000
2023-04-20T08:51:24.229Z,1800
2023-04-20T08:52:23.957Z,1780
2023-04-20T08:53:23.690Z,1800
2023-04-20T08:54:24.822Z,1900
2023-04-20T08:55:23.972Z,1700
2023-04-20T08:56:23.948Z,1690
2023-04-20T08:57:24.596Z,1710
2023-04-20T08:58:24.584Z,1761
2023-04-20T08:59:24.535Z,1800
2023-04-20T09:00:25.335Z,1800
2023-04-20T09:01:34.401Z,1730
2023-04-20T09:02:24.486Z,1800
2023-04-20T09:03:24.394Z,2000
2023-04-20T09:04:25.017Z,2150
2023-04-20T09:05:24.182Z,1900
2023-04-20T09:06:24.356Z,1700
2023-04-20T09:07:24.267Z,1690
2023-04-20T09:08:24.320Z,1723
2023-04-20T09:09:24.509Z,1720
2023-04-20T09:10:24.222Z,1500
2023-04-20T09:11:24.069Z,1200
2023-04-20T09:12:23.665Z,1090
2023-04-20T09:13:24.304Z,1072
2023-04-20T09:14:24.184Z,1020
2023-04-20T09:15:24.553Z,990
2023-04-20T09:16:24.182Z,1100
2023-04-20T09:17:24.372Z,1000
2023-04-20T09:18:24.420Z,1700
2023-04-20T09:19:24.131Z,2000
2023-04-20T09:20:23.881Z,2300
2023-04-20T09:21:24.464Z,2368
2023-04-20T09:22:24.192Z,2380
2023-04-20T09:23:24.425Z,2392
2023-04-20T09:24:24.034Z,2350
2023-04-20T09:25:24.344Z,2300
2023-04-20T09:26:23.875Z,2000
2023-04-20T09:27:24.331Z,3200
2023-04-20T09:28:24.122Z,3230
2023-04-20T09:29:23.878Z,3000
2023-04-20T09:30:24.674Z,4000
2023-04-20T09:31:24.358Z,4500
2023-04-20T09:32:24.654Z,4700
2023-04-20T09:33:24.196Z,4900
2023-04-20T09:34:24.133Z,5100
2023-04-20T09:35:24.511Z,5290
2023-04-20T09:36:23.933Z,5300
2023-04-20T09:37:24.099Z,5429
2023-04-20T09:38:24.501Z,5410
2023-04-20T09:39:24.287Z,5350
2023-04-20T09:40:24.667Z,5260
2023-04-20T09:41:24.170Z,5200
2023-04-20T09:42:24.197Z,5000
2023-04-20T09:43:23.884Z,5000
2023-04-20T09:44:24.012Z,6000
2023-04-20T09:45:24.625Z,6000
2023-04-20T09:46:24.448Z,7000
2023-04-20T09:47:24.340Z,6800
2023-04-20T09:48:24.290Z,6789
2023-04-20T09:49:24.212Z,6800
2023-04-20T09:50:31.968Z,6818
2023-04-20T09:51:24.281Z,6830
2023-04-20T09:52:24.183Z,6870
2023-04-20T09:53:23.983Z,6900
2023-04-20T09:54:24.134Z,7000
2023-04-20T09:55:23.971Z,7200
2023-04-20T09:56:24.195Z,7500
2023-04-20T09:57:24.064Z,7000
2023-04-20T09:58:23.958Z,0
2023-04-20T09:59:24.336Z,9000
2023-04-20T10:00:25.006Z,0
2023-04-20T10:01:24.059Z,0
2023-04-20T10:02:24.224Z,0
2023-04-20T10:03:24.697Z,0
2023-04-20T10:04:24.542Z,7000
2023-04-20T10:05:24.126Z,7400
2023-04-20T10:06:23.870Z,0
2023-04-20T10:07:24.546Z,10000
2023-04-20T10:08:24.343Z,10000
2023-04-20T10:09:24.522Z,0
2023-04-20T10:10:43.352Z,0
2023-04-20T10:11:24.040Z,6000
2023-04-20T10:12:24.453Z,6100
2023-04-20T10:13:24.492Z,5900
2023-04-20T10:14:24.039Z,6100
2023-04-20T10:15:24.521Z,5900
2023-04-20T10:16:24.074Z,5000
2023-04-20T10:17:24.553Z,5300
2023-04-20T10:18:24.831Z,5220
2023-04-20T10:19:24.359Z,5000
2023-04-20T10:20:24.577Z,5000
2023-04-20T10:21:24.031Z,0
2023-04-20T10:22:24.632Z,4000
2023-04-20T10:23:24.474Z,4400
2023-04-20T10:24:24.556Z,4400
2023-04-20T10:25:24.173Z,4600
2023-04-20T10:26:23.899Z,4600
2023-04-20T10:27:24.405Z,4300
2023-04-20T10:28:23.978Z,4220
2023-04-20T10:29:23.909Z,4270
2023-04-20T10:30:24.327Z,4300
2023-04-20T10:31:24.436Z,4000
2023-04-20T10:32:24.693Z,3000
2023-04-20T10:33:24.370Z,3440
2023-04-20T10:34:24.005Z,3500
2023-04-20T10:35:24.024Z,3710
2023-04-20T10:36:23.894Z,3600
2023-04-20T10:37:24.104Z,3400
2023-04-20T10:38:24.305Z,3000
2023-04-20T10:39:24.221Z,2000
2023-04-20T10:40:24.668Z,2000
2023-04-20T10:41:24.057Z,1600
2023-04-20T10:42:23.950Z,1500
2023-04-20T10:43:24.083Z,1420
2023-04-20T10:44:23.917Z,1300
2023-04-20T10:45:24.853Z,1100
2023-04-20T10:47:28.148Z,1040
2023-04-20T10:48:24.765Z,1070
2023-04-20T10:49:23.926Z,1100
2023-04-20T10:50:24.227Z,1200
2023-04-20T10:51:24.021Z,1400
2023-04-20T10:52:24.310Z,1500
2023-04-20T10:53:24.062Z,1700
2023-04-20T10:54:24.076Z,1900
2023-04-20T10:55:24.083Z,2000
2023-04-20T10:56:23.803Z,2000
2023-04-20T10:57:24.229Z,3000
2023-04-20T10:58:24.240Z,3000
2023-04-20T10:59:24.095Z,4000
2023-04-20T11:00:25.275Z,4417
2023-04-20T11:01:23.980Z,4370
2023-04-20T11:02:24.197Z,4370
2023-04-20T11:03:24.439Z,4000
2023-04-20T11:04:24.547Z,5000
2023-04-20T11:05:24.630Z,0
2023-04-20T11:06:24.280Z,0
2023-04-20T11:07:24.014Z,9300
2023-04-20T11:08:24.309Z,0
2023-04-20T11:09:25.016Z,7000
2023-04-20T11:10:25.020Z,0
2023-04-20T11:11:24.282Z,0
2023-04-20T11:12:24.213Z,0
2023-04-20T11:13:26.255Z,9000
2023-04-20T11:14:24.137Z,0
2023-04-20T11:15:24.114Z,0
2023-04-20T11:16:30.453Z,0
2023-04-20T11:17:24.236Z,7000
2023-04-20T11:18:24.363Z,7000
2023-04-20T11:19:24.276Z,6900
2023-04-20T11:20:23.974Z,7000
2023-04-20T11:21:24.043Z,0
2023-04-20T11:22:24.042Z,0
2023-04-20T11:23:23.956Z,0
2023-04-20T11:24:24.063Z,0
2023-04-20T11:25:23.832Z,0
2023-04-20T11:26:24.344Z,0
2023-04-20T11:27:24.392Z,5000
2023-04-20T11:28:24.286Z,0
2023-04-20T11:29:24.401Z,0
2023-04-20T11:30:24.523Z,0
2023-04-20T11:31:24.416Z,0
2023-04-20T11:32:24.089Z,0
2023-04-20T11:33:24.409Z,4000
2023-04-20T11:34:24.185Z,4330
2023-04-20T11:35:24.427Z,4000
2023-04-20T11:36:24.502Z,3000
2023-04-20T11:37:24.381Z,3000
2023-04-20T11:38:24.714Z,2800
2023-04-20T11:39:23.981Z,2710
2023-04-20T11:40:25.689Z,2696.
2023-04-20T11:41:24.294Z,2730
2023-04-20T11:42:24.499Z,2800
2023-04-20T11:43:24.533Z,3000
2023-04-20T11:44:24.379Z,3000
2023-04-20T11:45:24.416Z,0
2023-04-20T11:46:23.839Z,0
2023-04-20T11:47:24.042Z,6200
2023-04-20T11:48:24.517Z,0
2023-04-20T11:49:24.415Z,0
2023-04-20T11:50:24.643Z,5000
2023-04-20T11:51:24.236Z,4800
2023-04-20T11:52:23.970Z,0
2023-04-20T11:53:23.732Z,0
2023-04-20T11:54:24.684Z,6300
2023-04-20T11:55:24.476Z,0
2023-04-20T11:56:24.117Z,0
2023-04-20T11:57:24.125Z,0
2023-04-20T11:58:23.761Z,0
2023-04-20T11:59:24.308Z,0
2023-04-20T12:00:24.961Z,0
2023-04-20T12:01:24.353Z,0
2023-04-20T12:02:24.367Z,0
2023-04-20T12:03:24.160Z,0
2023-04-20T12:04:24.653Z,0
2023-04-20T12:05:24.441Z,0
2023-04-20T12:06:24.256Z,0
2023-04-20T12:07:29.565Z,10000
2023-04-20T12:08:24.517Z,0
2023-04-20T12:09:24.353Z,0
2023-04-20T12:10:24.314Z,0
2023-04-20T12:11:24.214Z,0
2023-04-20T12:12:24.423Z,0
2023-04-20T12:13:24.418Z,0
2023-04-20T12:14:24.362Z,0
2023-04-20T12:15:24.496Z,10000
2023-04-20T12:16:24.401Z,10000
2023-04-20T12:17:24.529Z,0
2023-04-20T12:18:24.528Z,0
2023-04-20T12:19:24.830Z,10000
2023-04-20T12:20:25.095Z,0
2023-04-20T12:21:23.936Z,0
2023-04-20T12:22:24.084Z,0
2023-04-20T12:23:23.973Z,0
2023-04-20T12:24:24.151Z,0
2023-04-20T12:25:24.554Z,6000
2023-04-20T12:26:31.963Z,0
2023-04-20T12:27:24.846Z,0
2023-04-20T12:28:24.003Z,0
2023-04-20T12:29:23.935Z,0
2023-04-20T12:30:25.058Z,6000
2023-04-20T12:31:38.181Z,0
2023-04-20T12:32:24.146Z,0
2023-04-20T12:33:24.504Z,0
2023-04-20T12:34:24.481Z,0
2023-04-20T12:35:43.661Z,8800
2023-04-20T12:36:24.027Z,8000
2023-04-20T12:37:24.153Z,9000
2023-04-20T12:38:24.207Z,10000
2023-04-20T12:39:24.093Z,10000
2023-04-20T12:40:24.309Z,0
2023-04-20T12:41:24.364Z,0
2023-04-20T12:42:24.238Z,0
2023-04-20T12:43:24.118Z,0
2023-04-20T12:44:23.934Z,0
2023-04-20T12:45:24.496Z,10000
2023-04-20T12:46:24.296Z,10000
2023-04-20T12:47:24.006Z,0
2023-04-20T12:48:24.055Z,0
2023-04-20T12:49:24.347Z,0
2023-04-20T12:50:24.614Z,0
2023-04-20T12:51:24.032Z,0
2023-04-20T12:52:24.078Z,0
2023-04-20T12:53:24.261Z,0
2023-04-20T12:54:24.521Z,0
2023-04-20T12:55:23.963Z,0
2023-04-20T12:56:24.292Z,0
2023-04-20T12:57:24.217Z,0
2023-04-20T12:58:24.303Z,0
2023-04-20T12:59:24.033Z,0
2023-04-20T13:00:24.824Z,0
2023-04-20T13:01:24.357Z,0
2023-04-20T13:02:24.663Z,0
2023-04-20T13:03:24.574Z,5000
2023-04-20T13:04:24.666Z,5400
2023-04-20T13:05:24.847Z,0
2023-04-20T13:06:24.243Z,0
2023-04-20T13:07:24.538Z,0
2023-04-20T13:08:24.286Z,6900
2023-04-20T13:09:24.132Z,0
2023-04-20T13:10:24.459Z,0
2023-04-20T13:11:24.899Z,0
2023-04-20T13:12:24.259Z,0
2023-04-20T13:13:24.297Z,0
2023-04-20T13:14:24.402Z,8000
2023-04-20T13:15:35.618Z,0
2023-04-20T13:16:24.334Z,0
2023-04-20T13:17:24.470Z,0
2023-04-20T13:18:24.345Z,0
2023-04-20T13:19:24.337Z,0
2023-04-20T13:20:24.441Z,0
2023-04-20T13:21:24.526Z,0
2023-04-20T13:22:24.499Z,0
2023-04-20T13:23:24.579Z,0
2023-04-20T13:24:24.365Z,0
2023-04-20T13:25:25.111Z,0
2023-04-20T13:26:24.279Z,7000
2023-04-20T13:27:24.460Z,6000
2023-04-20T13:28:24.346Z,6000
2023-04-20T13:30:28.676Z,6100
2023-04-20T13:31:24.326Z,6120
2023-04-20T13:32:24.478Z,6100
2023-04-20T13:33:24.300Z,6000
2023-04-20T13:34:24.513Z,0
2023-04-20T13:35:25.076Z,5200
2023-04-20T13:36:23.880Z,5400
2023-04-20T13:37:24.453Z,0
2023-04-20T13:38:24.771Z,6000
2023-04-20T13:39:24.375Z,0
2023-04-20T13:40:24.550Z,0
2023-04-20T13:41:24.387Z,0
2023-04-20T13:42:24.409Z,0
2023-04-20T13:43:24.435Z,0
2023-04-20T13:44:24.108Z,0
2023-04-20T13:45:24.394Z,0
2023-04-20T13:46:24.306Z,0
2023-04-20T13:47:24.434Z,0
2023-04-20T13:48:24.808Z,0
2023-04-20T13:49:23.894Z,0
2023-04-20T13:50:24.710Z,6000
2023-04-20T13:51:24.258Z,0
2023-04-20T13:52:24.169Z,0
2023-04-20T13:53:24.399Z,0
2023-04-20T13:54:24.331Z,0
2023-04-20T13:55:26.808Z,0
2023-04-20T13:56:23.930Z,28000
2023-04-20T13:57:24.503Z,20000